sensor_id;sensor_type;location;lat;lon;timestamp;P1;durP1;ratioP1;P2;durP2;ratioP2
28625;SDS011;18905;42.668;23.364;2023-04-06T00:02:01;18.30;;;11.85;;
28625;SDS011;18905;42.668;23.364;2023-04-06T00:04:26;16.13;;;9.45;;
28625;SDS011;18905;42.668;23.364;2023-04-06T00:06:52;15.93;;;8.75;;
28625;SDS011;18905;42.668;23.364;2023-04-06T00:09:17;14.63;;;9.07;;
28625;SDS011;18905;42.668;23.364;2023-04-06T00:11:43;14.95;;;9.30;;
28625;SDS011;18905;42.668;23.364;2023-04-06T00:14:08;15.10;;;9.68;;
28625;SDS011;18905;42.668;23.364;2023-04-06T00:16:34;17.52;;;10.25;;
28625;SDS011;18905;42.668;23.364;2023-04-06T00:19:00;18.70;;;10.00;;
28625;SDS011;18905;42.668;23.364;2023-04-06T00:21:25;15.98;;;9.07;;
28625;SDS011;18905;42.668;23.364;2023-04-06T00:23:51;16.80;;;9.68;;
28625;SDS011;18905;42.668;23.364;2023-04-06T00:26:16;16.75;;;9.48;;
28625;SDS011;18905;42.668;23.364;2023-04-06T00:28:42;17.88;;;10.55;;
28625;SDS011;18905;42.668;23.364;2023-04-06T00:31:07;16.05;;;9.65;;
28625;SDS011;18905;42.668;23.364;2023-04-06T00:33:32;15.80;;;10.38;;
28625;SDS011;18905;42.668;23.364;2023-04-06T00:35:58;17.65;;;10.00;;
28625;SDS011;18905;42.668;23.364;2023-04-06T00:38:23;13.65;;;9.45;;
28625;SDS011;18905;42.668;23.364;2023-04-06T00:40:49;16.92;;;10.77;;
28625;SDS011;18905;42.668;23.364;2023-04-06T00:43:15;14.88;;;9.80;;
28625;SDS011;18905;42.668;23.364;2023-04-06T00:45:41;15.43;;;9.80;;
28625;SDS011;18905;42.668;23.364;2023-04-06T00:48:06;16.50;;;9.45;;
28625;SDS011;18905;42.668;23.364;2023-04-06T00:50:32;17.35;;;9.90;;
28625;SDS011;18905;42.668;23.364;2023-04-06T00:52:58;17.73;;;10.90;;
28625;SDS011;18905;42.668;23.364;2023-04-06T00:55:25;13.98;;;9.70;;
28625;SDS011;18905;42.668;23.364;2023-04-06T00:57:51;14.27;;;10.13;;
28625;SDS011;18905;42.668;23.364;2023-04-06T01:00:17;15.35;;;10.20;;
28625;SDS011;18905;42.668;23.364;2023-04-06T01:02:43;19.17;;;9.82;;
28625;SDS011;18905;42.668;23.364;2023-04-06T01:05:10;13.88;;;9.32;;
28625;SDS011;18905;42.668;23.364;2023-04-06T01:07:36;12.18;;;7.47;;
28625;SDS011;18905;42.668;23.364;2023-04-06T01:10:07;19.00;;;10.55;;
28625;SDS011;18905;42.668;23.364;2023-04-06T01:12:33;14.20;;;8.98;;
28625;SDS011;18905;42.668;23.364;2023-04-06T01:14:59;15.55;;;10.48;;
28625;SDS011;18905;42.668;23.364;2023-04-06T01:17:24;16.25;;;10.30;;
28625;SDS011;18905;42.668;23.364;2023-04-06T01:19:50;13.65;;;9.13;;
28625;SDS011;18905;42.668;23.364;2023-04-06T01:22:18;15.30;;;9.48;;
28625;SDS011;18905;42.668;23.364;2023-04-06T01:24:44;14.02;;;8.80;;
28625;SDS011;18905;42.668;23.364;2023-04-06T01:27:10;14.40;;;8.65;;
28625;SDS011;18905;42.668;23.364;2023-04-06T01:29:36;13.23;;;8.40;;
28625;SDS011;18905;42.668;23.364;2023-04-06T01:32:02;13.63;;;8.75;;
28625;SDS011;18905;42.668;23.364;2023-04-06T01:34:27;14.77;;;9.27;;
28625;SDS011;18905;42.668;23.364;2023-04-06T01:36:53;11.75;;;7.43;;
28625;SDS011;18905;42.668;23.364;2023-04-06T01:39:18;11.77;;;7.03;;
28625;SDS011;18905;42.668;23.364;2023-04-06T01:41:44;11.75;;;7.50;;
28625;SDS011;18905;42.668;23.364;2023-04-06T01:44:12;17.20;;;7.55;;
28625;SDS011;18905;42.668;23.364;2023-04-06T01:46:37;12.68;;;6.95;;
28625;SDS011;18905;42.668;23.364;2023-04-06T01:49:03;13.82;;;8.38;;
28625;SDS011;18905;42.668;23.364;2023-04-06T01:51:28;11.20;;;7.10;;
28625;SDS011;18905;42.668;23.364;2023-04-06T01:53:55;12.20;;;7.95;;
28625;SDS011;18905;42.668;23.364;2023-04-06T01:56:20;11.32;;;7.53;;
28625;SDS011;18905;42.668;23.364;2023-04-06T01:58:46;14.23;;;8.20;;
28625;SDS011;18905;42.668;23.364;2023-04-06T02:01:11;17.65;;;9.77;;
28625;SDS011;18905;42.668;23.364;2023-04-06T02:03:37;16.38;;;8.40;;
28625;SDS011;18905;42.668;23.364;2023-04-06T02:06:02;18.60;;;9.00;;
28625;SDS011;18905;42.668;23.364;2023-04-06T02:08:28;12.38;;;8.18;;
28625;SDS011;18905;42.668;23.364;2023-04-06T02:10:54;13.73;;;8.40;;
28625;SDS011;18905;42.668;23.364;2023-04-06T02:13:19;15.93;;;10.13;;
28625;SDS011;18905;42.668;23.364;2023-04-06T02:15:45;15.70;;;8.73;;
28625;SDS011;18905;42.668;23.364;2023-04-06T02:18:10;14.10;;;9.75;;
28625;SDS011;18905;42.668;23.364;2023-04-06T02:20:36;17.33;;;8.98;;
28625;SDS011;18905;42.668;23.364;2023-04-06T02:23:01;16.95;;;8.68;;
28625;SDS011;18905;42.668;23.364;2023-04-06T02:25:27;13.45;;;8.80;;
28625;SDS011;18905;42.668;23.364;2023-04-06T02:27:53;11.30;;;6.82;;
28625;SDS011;18905;42.668;23.364;2023-04-06T02:30:18;15.00;;;8.30;;
28625;SDS011;18905;42.668;23.364;2023-04-06T02:32:44;15.00;;;9.05;;
28625;SDS011;18905;42.668;23.364;2023-04-06T02:35:09;14.98;;;8.68;;
28625;SDS011;18905;42.668;23.364;2023-04-06T02:37:35;11.55;;;7.68;;
28625;SDS011;18905;42.668;23.364;2023-04-06T02:40:00;15.07;;;8.27;;
28625;SDS011;18905;42.668;23.364;2023-04-06T02:42:26;14.57;;;9.20;;
28625;SDS011;18905;42.668;23.364;2023-04-06T02:44:51;15.85;;;8.48;;
28625;SDS011;18905;42.668;23.364;2023-04-06T02:47:17;14.63;;;8.75;;
28625;SDS011;18905;42.668;23.364;2023-04-06T02:49:42;13.65;;;8.93;;
28625;SDS011;18905;42.668;23.364;2023-04-06T02:52:08;16.25;;;8.88;;
28625;SDS011;18905;42.668;23.364;2023-04-06T02:54:33;12.70;;;7.15;;
28625;SDS011;18905;42.668;23.364;2023-04-06T02:56:58;13.95;;;7.07;;
28625;SDS011;18905;42.668;23.364;2023-04-06T02:59:24;12.98;;;8.10;;
28625;SDS011;18905;42.668;23.364;2023-04-06T03:01:50;14.50;;;7.93;;
28625;SDS011;18905;42.668;23.364;2023-04-06T03:04:16;13.48;;;8.52;;
28625;SDS011;18905;42.668;23.364;2023-04-06T03:06:41;14.68;;;9.23;;
28625;SDS011;18905;42.668;23.364;2023-04-06T03:09:06;12.10;;;7.78;;
28625;SDS011;18905;42.668;23.364;2023-04-06T03:11:32;16.30;;;7.43;;
28625;SDS011;18905;42.668;23.364;2023-04-06T03:13:58;12.43;;;6.93;;
28625;SDS011;18905;42.668;23.364;2023-04-06T03:16:24;11.57;;;6.50;;
28625;SDS011;18905;42.668;23.364;2023-04-06T03:18:49;12.18;;;6.38;;
28625;SDS011;18905;42.668;23.364;2023-04-06T03:21:15;14.85;;;8.45;;
28625;SDS011;18905;42.668;23.364;2023-04-06T03:23:41;12.82;;;7.45;;
28625;SDS011;18905;42.668;23.364;2023-04-06T03:26:06;12.80;;;7.68;;
28625;SDS011;18905;42.668;23.364;2023-04-06T03:28:32;12.55;;;7.40;;
28625;SDS011;18905;42.668;23.364;2023-04-06T03:30:57;14.75;;;8.60;;
28625;SDS011;18905;42.668;23.364;2023-04-06T03:33:23;15.63;;;9.90;;
28625;SDS011;18905;42.668;23.364;2023-04-06T03:35:52;12.18;;;7.90;;
28625;SDS011;18905;42.668;23.364;2023-04-06T03:38:17;11.85;;;7.50;;
28625;SDS011;18905;42.668;23.364;2023-04-06T03:40:43;11.70;;;8.00;;
28625;SDS011;18905;42.668;23.364;2023-04-06T03:43:09;13.25;;;8.60;;
28625;SDS011;18905;42.668;23.364;2023-04-06T03:45:35;11.05;;;7.22;;
28625;SDS011;18905;42.668;23.364;2023-04-06T03:48:00;13.95;;;8.55;;
28625;SDS011;18905;42.668;23.364;2023-04-06T03:50:26;10.80;;;7.50;;
28625;SDS011;18905;42.668;23.364;2023-04-06T03:52:51;12.77;;;8.13;;
28625;SDS011;18905;42.668;23.364;2023-04-06T03:55:16;12.52;;;8.05;;
28625;SDS011;18905;42.668;23.364;2023-04-06T03:57:42;12.70;;;8.23;;
28625;SDS011;18905;42.668;23.364;2023-04-06T04:00:08;13.07;;;7.05;;
28625;SDS011;18905;42.668;23.364;2023-04-06T04:02:34;12.15;;;7.15;;
28625;SDS011;18905;42.668;23.364;2023-04-06T04:04:59;12.90;;;7.20;;
28625;SDS011;18905;42.668;23.364;2023-04-06T04:07:25;16.15;;;8.63;;
28625;SDS011;18905;42.668;23.364;2023-04-06T04:09:50;15.23;;;8.85;;
28625;SDS011;18905;42.668;23.364;2023-04-06T04:12:16;11.27;;;7.38;;
28625;SDS011;18905;42.668;23.364;2023-04-06T04:14:41;18.33;;;9.20;;
28625;SDS011;18905;42.668;23.364;2023-04-06T04:17:07;14.90;;;8.13;;
28625;SDS011;18905;42.668;23.364;2023-04-06T04:19:33;23.98;;;9.80;;
28625;SDS011;18905;42.668;23.364;2023-04-06T04:21:58;17.70;;;9.60;;
28625;SDS011;18905;42.668;23.364;2023-04-06T04:24:24;21.08;;;11.50;;
28625;SDS011;18905;42.668;23.364;2023-04-06T04:26:49;16.13;;;9.15;;
28625;SDS011;18905;42.668;23.364;2023-04-06T04:29:15;16.95;;;9.75;;
28625;SDS011;18905;42.668;23.364;2023-04-06T04:31:41;20.13;;;10.32;;
28625;SDS011;18905;42.668;23.364;2023-04-06T04:34:07;17.17;;;11.13;;
28625;SDS011;18905;42.668;23.364;2023-04-06T04:36:32;15.32;;;9.57;;
28625;SDS011;18905;42.668;23.364;2023-04-06T04:38:58;22.70;;;10.75;;
28625;SDS011;18905;42.668;23.364;2023-04-06T04:41:26;13.82;;;8.35;;
28625;SDS011;18905;42.668;23.364;2023-04-06T04:43:52;18.38;;;9.43;;
28625;SDS011;18905;42.668;23.364;2023-04-06T04:46:17;15.07;;;8.18;;
28625;SDS011;18905;42.668;23.364;2023-04-06T04:48:42;18.63;;;9.98;;
28625;SDS011;18905;42.668;23.364;2023-04-06T04:51:08;13.52;;;8.45;;
28625;SDS011;18905;42.668;23.364;2023-04-06T04:53:33;22.00;;;10.65;;
28625;SDS011;18905;42.668;23.364;2023-04-06T04:55:59;14.57;;;9.38;;
28625;SDS011;18905;42.668;23.364;2023-04-06T04:58:24;13.00;;;7.85;;
28625;SDS011;18905;42.668;23.364;2023-04-06T05:00:50;16.85;;;8.80;;
28625;SDS011;18905;42.668;23.364;2023-04-06T05:03:22;16.05;;;8.45;;
28625;SDS011;18905;42.668;23.364;2023-04-06T05:05:49;14.63;;;8.13;;
28625;SDS011;18905;42.668;23.364;2023-04-06T05:08:15;20.48;;;10.23;;
28625;SDS011;18905;42.668;23.364;2023-04-06T05:10:41;11.45;;;7.20;;
28625;SDS011;18905;42.668;23.364;2023-04-06T05:13:07;14.25;;;9.00;;
28625;SDS011;18905;42.668;23.364;2023-04-06T05:15:33;20.63;;;10.38;;
28625;SDS011;18905;42.668;23.364;2023-04-06T05:18:03;19.08;;;8.90;;
28625;SDS011;18905;42.668;23.364;2023-04-06T05:20:29;17.15;;;10.95;;
28625;SDS011;18905;42.668;23.364;2023-04-06T05:22:55;17.58;;;10.15;;
28625;SDS011;18905;42.668;23.364;2023-04-06T05:25:21;16.75;;;10.15;;
28625;SDS011;18905;42.668;23.364;2023-04-06T05:27:46;21.20;;;10.85;;
28625;SDS011;18905;42.668;23.364;2023-04-06T05:30:12;17.75;;;9.50;;
28625;SDS011;18905;42.668;23.364;2023-04-06T05:32:38;18.25;;;10.27;;
28625;SDS011;18905;42.668;23.364;2023-04-06T05:35:03;19.67;;;10.70;;
28625;SDS011;18905;42.668;23.364;2023-04-06T05:37:29;22.85;;;10.45;;
28625;SDS011;18905;42.668;23.364;2023-04-06T05:39:55;16.90;;;9.93;;
28625;SDS011;18905;42.668;23.364;2023-04-06T05:42:21;23.73;;;12.73;;
28625;SDS011;18905;42.668;23.364;2023-04-06T05:44:47;22.15;;;11.57;;
28625;SDS011;18905;42.668;23.364;2023-04-06T05:47:13;21.90;;;11.43;;
28625;SDS011;18905;42.668;23.364;2023-04-06T05:49:38;21.13;;;12.43;;
28625;SDS011;18905;42.668;23.364;2023-04-06T05:52:04;24.27;;;12.77;;
28625;SDS011;18905;42.668;23.364;2023-04-06T05:54:29;21.08;;;11.82;;
28625;SDS011;18905;42.668;23.364;2023-04-06T05:56:55;24.05;;;13.27;;
28625;SDS011;18905;42.668;23.364;2023-04-06T05:59:20;20.92;;;12.65;;
28625;SDS011;18905;42.668;23.364;2023-04-06T06:01:46;29.77;;;12.00;;
28625;SDS011;18905;42.668;23.364;2023-04-06T06:04:11;22.75;;;12.05;;
28625;SDS011;18905;42.668;23.364;2023-04-06T06:06:37;21.02;;;12.65;;
28625;SDS011;18905;42.668;23.364;2023-04-06T06:09:02;27.25;;;13.27;;
28625;SDS011;18905;42.668;23.364;2023-04-06T06:11:28;25.80;;;13.43;;
28625;SDS011;18905;42.668;23.364;2023-04-06T06:13:55;27.83;;;15.40;;
28625;SDS011;18905;42.668;23.364;2023-04-06T06:16:21;24.98;;;13.73;;
28625;SDS011;18905;42.668;23.364;2023-04-06T06:18:46;21.77;;;13.27;;
28625;SDS011;18905;42.668;23.364;2023-04-06T06:21:12;29.30;;;14.15;;
28625;SDS011;18905;42.668;23.364;2023-04-06T06:23:37;22.23;;;12.60;;
28625;SDS011;18905;42.668;23.364;2023-04-06T06:26:03;25.50;;;13.38;;
28625;SDS011;18905;42.668;23.364;2023-04-06T06:28:29;24.88;;;13.60;;
28625;SDS011;18905;42.668;23.364;2023-04-06T06:30:55;26.40;;;14.15;;
28625;SDS011;18905;42.668;23.364;2023-04-06T06:33:20;23.92;;;12.65;;
28625;SDS011;18905;42.668;23.364;2023-04-06T06:35:46;22.50;;;13.40;;
28625;SDS011;18905;42.668;23.364;2023-04-06T06:38:11;25.40;;;13.98;;
28625;SDS011;18905;42.668;23.364;2023-04-06T06:40:37;25.55;;;13.52;;
28625;SDS011;18905;42.668;23.364;2023-04-06T06:43:02;24.75;;;14.75;;
28625;SDS011;18905;42.668;23.364;2023-04-06T06:45:28;25.25;;;13.30;;
28625;SDS011;18905;42.668;23.364;2023-04-06T06:47:54;18.23;;;11.68;;
28625;SDS011;18905;42.668;23.364;2023-04-06T06:50:20;21.30;;;12.25;;
28625;SDS011;18905;42.668;23.364;2023-04-06T06:52:45;26.38;;;13.40;;
28625;SDS011;18905;42.668;23.364;2023-04-06T06:55:11;26.63;;;13.73;;
28625;SDS011;18905;42.668;23.364;2023-04-06T06:57:37;24.95;;;13.40;;
28625;SDS011;18905;42.668;23.364;2023-04-06T07:00:03;22.20;;;14.30;;
28625;SDS011;18905;42.668;23.364;2023-04-06T07:02:30;22.23;;;11.85;;
28625;SDS011;18905;42.668;23.364;2023-04-06T07:04:56;24.15;;;12.68;;
28625;SDS011;18905;42.668;23.364;2023-04-06T07:07:21;26.60;;;11.77;;
28625;SDS011;18905;42.668;23.364;2023-04-06T07:09:48;18.23;;;10.88;;
28625;SDS011;18905;42.668;23.364;2023-04-06T07:12:13;18.88;;;10.60;;
28625;SDS011;18905;42.668;23.364;2023-04-06T07:14:39;18.83;;;9.85;;
28625;SDS011;18905;42.668;23.364;2023-04-06T07:17:06;17.20;;;8.48;;
28625;SDS011;18905;42.668;23.364;2023-04-06T07:19:33;17.42;;;8.88;;
28625;SDS011;18905;42.668;23.364;2023-04-06T07:21:59;19.98;;;11.23;;
28625;SDS011;18905;42.668;23.364;2023-04-06T07:24:26;19.58;;;11.35;;
28625;SDS011;18905;42.668;23.364;2023-04-06T07:27:02;18.50;;;10.63;;
28625;SDS011;18905;42.668;23.364;2023-04-06T07:29:29;17.75;;;10.23;;
28625;SDS011;18905;42.668;23.364;2023-04-06T07:31:56;19.08;;;9.77;;
28625;SDS011;18905;42.668;23.364;2023-04-06T07:34:26;16.25;;;9.75;;
28625;SDS011;18905;42.668;23.364;2023-04-06T07:36:53;16.95;;;9.25;;
28625;SDS011;18905;42.668;23.364;2023-04-06T07:39:21;16.90;;;11.30;;
28625;SDS011;18905;42.668;23.364;2023-04-06T07:41:53;22.60;;;10.20;;
28625;SDS011;18905;42.668;23.364;2023-04-06T07:44:47;19.33;;;11.25;;
28625;SDS011;18905;42.668;23.364;2023-04-06T07:47:26;17.50;;;9.68;;
28625;SDS011;18905;42.668;23.364;2023-04-06T07:50:02;18.50;;;9.77;;
28625;SDS011;18905;42.668;23.364;2023-04-06T07:52:36;18.15;;;10.45;;
28625;SDS011;18905;42.668;23.364;2023-04-06T07:55:26;18.52;;;9.60;;
28625;SDS011;18905;42.668;23.364;2023-04-06T07:58:04;23.30;;;11.38;;
28625;SDS011;18905;42.668;23.364;2023-04-06T08:01:08;22.17;;;10.63;;
28625;SDS011;18905;42.668;23.364;2023-04-06T08:03:58;17.73;;;10.85;;
28625;SDS011;18905;42.668;23.364;2023-04-06T08:06:35;20.20;;;11.95;;
28625;SDS011;18905;42.668;23.364;2023-04-06T08:09:23;16.63;;;9.88;;
28625;SDS011;18905;42.668;23.364;2023-04-06T08:12:12;17.58;;;10.60;;
28625;SDS011;18905;42.668;23.364;2023-04-06T08:15:00;16.83;;;10.18;;
28625;SDS011;18905;42.668;23.364;2023-04-06T08:17:27;16.27;;;10.15;;
28625;SDS011;18905;42.668;23.364;2023-04-06T08:19:58;15.70;;;8.02;;
28625;SDS011;18905;42.668;23.364;2023-04-06T08:22:35;16.40;;;10.02;;
28625;SDS011;18905;42.668;23.364;2023-04-06T08:25:40;18.75;;;9.57;;
28625;SDS011;18905;42.668;23.364;2023-04-06T08:28:34;13.63;;;9.60;;
28625;SDS011;18905;42.668;23.364;2023-04-06T08:31:09;13.32;;;7.80;;
28625;SDS011;18905;42.668;23.364;2023-04-06T08:33:58;12.85;;;8.30;;
28625;SDS011;18905;42.668;23.364;2023-04-06T08:36:49;14.85;;;9.45;;
28625;SDS011;18905;42.668;23.364;2023-04-06T08:39:44;16.15;;;9.68;;
28625;SDS011;18905;42.668;23.364;2023-04-06T08:42:33;15.18;;;8.40;;
28625;SDS011;18905;42.668;23.364;2023-04-06T08:45:07;18.27;;;9.93;;
28625;SDS011;18905;42.668;23.364;2023-04-06T08:47:35;12.57;;;8.48;;
28625;SDS011;18905;42.668;23.364;2023-04-06T08:50:10;14.30;;;9.02;;
28625;SDS011;18905;42.668;23.364;2023-04-06T08:52:55;13.02;;;9.30;;
28625;SDS011;18905;42.668;23.364;2023-04-06T08:55:46;17.55;;;8.80;;
28625;SDS011;18905;42.668;23.364;2023-04-06T08:58:35;17.33;;;9.00;;
28625;SDS011;18905;42.668;23.364;2023-04-06T09:01:26;13.68;;;9.40;;
28625;SDS011;18905;42.668;23.364;2023-04-06T09:07:28;13.60;;;9.57;;
28625;SDS011;18905;42.668;23.364;2023-04-06T09:11:09;14.40;;;8.50;;
28625;SDS011;18905;42.668;23.364;2023-04-06T09:13:49;13.45;;;7.57;;
28625;SDS011;18905;42.668;23.364;2023-04-06T09:16:43;15.88;;;8.57;;
28625;SDS011;18905;42.668;23.364;2023-04-06T09:19:22;15.43;;;9.82;;
28625;SDS011;18905;42.668;23.364;2023-04-06T09:22:05;16.67;;;9.10;;
28625;SDS011;18905;42.668;23.364;2023-04-06T09:25:00;13.52;;;8.27;;
28625;SDS011;18905;42.668;23.364;2023-04-06T09:27:38;12.85;;;8.05;;
28625;SDS011;18905;42.668;23.364;2023-04-06T09:30:47;14.57;;;9.02;;
28625;SDS011;18905;42.668;23.364;2023-04-06T09:33:30;18.00;;;9.15;;
28625;SDS011;18905;42.668;23.364;2023-04-06T09:36:56;14.50;;;9.57;;
28625;SDS011;18905;42.668;23.364;2023-04-06T09:40:07;12.40;;;8.07;;
28625;SDS011;18905;42.668;23.364;2023-04-06T09:43:11;14.82;;;8.93;;
28625;SDS011;18905;42.668;23.364;2023-04-06T09:45:51;15.60;;;9.00;;
28625;SDS011;18905;42.668;23.364;2023-04-06T09:48:30;14.50;;;8.93;;
28625;SDS011;18905;42.668;23.364;2023-04-06T09:54:10;18.75;;;9.55;;
28625;SDS011;18905;42.668;23.364;2023-04-06T10:00:17;14.77;;;9.07;;
28625;SDS011;18905;42.668;23.364;2023-04-06T10:08:41;13.77;;;8.73;;
28625;SDS011;18905;42.668;23.364;2023-04-06T10:11:14;13.30;;;8.65;;
28625;SDS011;18905;42.668;23.364;2023-04-06T10:14:13;15.63;;;8.10;;
28625;SDS011;18905;42.668;23.364;2023-04-06T10:28:45;15.43;;;9.43;;
28625;SDS011;18905;42.668;23.364;2023-04-06T10:31:50;17.23;;;8.32;;
28625;SDS011;18905;42.668;23.364;2023-04-06T10:34:17;13.27;;;7.40;;
28625;SDS011;18905;42.668;23.364;2023-04-06T10:36:49;15.35;;;7.38;;
28625;SDS011;18905;42.668;23.364;2023-04-06T10:39:53;14.77;;;8.07;;
28625;SDS011;18905;42.668;23.364;2023-04-06T10:43:13;12.00;;;8.05;;
28625;SDS011;18905;42.668;23.364;2023-04-06T10:46:02;16.30;;;8.35;;
28625;SDS011;18905;42.668;23.364;2023-04-06T10:49:29;12.57;;;7.93;;
28625;SDS011;18905;42.668;23.364;2023-04-06T10:51:51;11.55;;;8.38;;
28625;SDS011;18905;42.668;23.364;2023-04-06T10:54:34;13.05;;;8.43;;
28625;SDS011;18905;42.668;23.364;2023-04-06T10:57:56;16.95;;;8.88;;
28625;SDS011;18905;42.668;23.364;2023-04-06T11:00:47;13.48;;;7.63;;
28625;SDS011;18905;42.668;23.364;2023-04-06T11:03:51;12.50;;;8.27;;
28625;SDS011;18905;42.668;23.364;2023-04-06T11:28:52;14.98;;;9.00;;
28625;SDS011;18905;42.668;23.364;2023-04-06T11:32:06;13.85;;;8.23;;
28625;SDS011;18905;42.668;23.364;2023-04-06T11:38:18;14.55;;;8.38;;
28625;SDS011;18905;42.668;23.364;2023-04-06T11:40:56;11.27;;;7.80;;
28625;SDS011;18905;42.668;23.364;2023-04-06T11:43:54;15.02;;;7.90;;
28625;SDS011;18905;42.668;23.364;2023-04-06T11:46:53;13.50;;;9.10;;
28625;SDS011;18905;42.668;23.364;2023-04-06T11:49:43;13.57;;;8.65;;
28625;SDS011;18905;42.668;23.364;2023-04-06T11:53:05;11.50;;;8.20;;
28625;SDS011;18905;42.668;23.364;2023-04-06T12:21:02;14.27;;;8.57;;
28625;SDS011;18905;42.668;23.364;2023-04-06T12:24:03;15.18;;;9.20;;
28625;SDS011;18905;42.668;23.364;2023-04-06T12:30:14;17.05;;;10.10;;
28625;SDS011;18905;42.668;23.364;2023-04-06T12:33:21;14.77;;;8.80;;
28625;SDS011;18905;42.668;23.364;2023-04-06T12:37:15;15.88;;;9.77;;
28625;SDS011;18905;42.668;23.364;2023-04-06T12:40:13;16.50;;;9.85;;
28625;SDS011;18905;42.668;23.364;2023-04-06T12:42:53;14.50;;;8.68;;
28625;SDS011;18905;42.668;23.364;2023-04-06T12:45:26;17.17;;;9.80;;
28625;SDS011;18905;42.668;23.364;2023-04-06T12:47:54;12.98;;;8.73;;
28625;SDS011;18905;42.668;23.364;2023-04-06T12:50:57;14.63;;;8.30;;
28625;SDS011;18905;42.668;23.364;2023-04-06T12:53:30;16.67;;;9.40;;
28625;SDS011;18905;42.668;23.364;2023-04-06T12:56:02;14.00;;;8.57;;
28625;SDS011;18905;42.668;23.364;2023-04-06T12:58:37;13.15;;;8.13;;
28625;SDS011;18905;42.668;23.364;2023-04-06T13:01:05;15.98;;;9.70;;
28625;SDS011;18905;42.668;23.364;2023-04-06T13:03:32;19.98;;;9.40;;
28625;SDS011;18905;42.668;23.364;2023-04-06T13:05:58;14.95;;;9.07;;
28625;SDS011;18905;42.668;23.364;2023-04-06T13:08:25;17.33;;;9.25;;
28625;SDS011;18905;42.668;23.364;2023-04-06T13:10:51;14.45;;;9.38;;
28625;SDS011;18905;42.668;23.364;2023-04-06T13:13:24;12.82;;;8.35;;
28625;SDS011;18905;42.668;23.364;2023-04-06T13:15:51;16.77;;;9.13;;
28625;SDS011;18905;42.668;23.364;2023-04-06T13:18:17;16.05;;;8.88;;
28625;SDS011;18905;42.668;23.364;2023-04-06T13:20:43;15.38;;;9.23;;
28625;SDS011;18905;42.668;23.364;2023-04-06T13:23:09;17.35;;;9.63;;
28625;SDS011;18905;42.668;23.364;2023-04-06T13:25:34;16.70;;;10.23;;
28625;SDS011;18905;42.668;23.364;2023-04-06T13:28:00;12.90;;;9.23;;
28625;SDS011;18905;42.668;23.364;2023-04-06T13:30:26;13.07;;;8.40;;
28625;SDS011;18905;42.668;23.364;2023-04-06T13:32:51;13.65;;;8.90;;
28625;SDS011;18905;42.668;23.364;2023-04-06T13:35:17;20.00;;;9.45;;
28625;SDS011;18905;42.668;23.364;2023-04-06T13:37:43;17.65;;;8.93;;
28625;SDS011;18905;42.668;23.364;2023-04-06T13:40:08;15.10;;;8.63;;
28625;SDS011;18905;42.668;23.364;2023-04-06T13:42:34;17.27;;;9.52;;
28625;SDS011;18905;42.668;23.364;2023-04-06T13:45:00;12.63;;;7.55;;
28625;SDS011;18905;42.668;23.364;2023-04-06T13:47:26;15.65;;;9.30;;
28625;SDS011;18905;42.668;23.364;2023-04-06T13:49:52;14.00;;;8.40;;
28625;SDS011;18905;42.668;23.364;2023-04-06T13:52:19;15.10;;;8.52;;
28625;SDS011;18905;42.668;23.364;2023-04-06T13:54:45;13.88;;;8.35;;
28625;SDS011;18905;42.668;23.364;2023-04-06T13:57:11;12.18;;;7.18;;
28625;SDS011;18905;42.668;23.364;2023-04-06T13:59:37;12.68;;;7.45;;
28625;SDS011;18905;42.668;23.364;2023-04-06T14:02:03;10.43;;;7.55;;
28625;SDS011;18905;42.668;23.364;2023-04-06T14:04:30;14.38;;;8.60;;
28625;SDS011;18905;42.668;23.364;2023-04-06T14:06:56;15.38;;;9.00;;
28625;SDS011;18905;42.668;23.364;2023-04-06T14:09:22;12.02;;;7.50;;
28625;SDS011;18905;42.668;23.364;2023-04-06T14:11:48;15.90;;;7.03;;
28625;SDS011;18905;42.668;23.364;2023-04-06T14:14:14;17.08;;;7.10;;
28625;SDS011;18905;42.668;23.364;2023-04-06T14:16:40;13.73;;;7.63;;
28625;SDS011;18905;42.668;23.364;2023-04-06T14:19:06;13.00;;;7.55;;
28625;SDS011;18905;42.668;23.364;2023-04-06T14:21:31;13.07;;;7.80;;
28625;SDS011;18905;42.668;23.364;2023-04-06T14:23:57;12.98;;;7.90;;
28625;SDS011;18905;42.668;23.364;2023-04-06T14:26:23;12.48;;;7.15;;
28625;SDS011;18905;42.668;23.364;2023-04-06T14:28:48;12.40;;;8.20;;
28625;SDS011;18905;42.668;23.364;2023-04-06T14:31:14;18.80;;;8.75;;
28625;SDS011;18905;42.668;23.364;2023-04-06T14:33:40;13.90;;;7.05;;
28625;SDS011;18905;42.668;23.364;2023-04-06T14:36:12;11.85;;;8.10;;
28625;SDS011;18905;42.668;23.364;2023-04-06T14:38:37;17.40;;;8.30;;
28625;SDS011;18905;42.668;23.364;2023-04-06T14:41:05;15.55;;;8.10;;
28625;SDS011;18905;42.668;23.364;2023-04-06T14:43:45;19.08;;;9.75;;
28625;SDS011;18905;42.668;23.364;2023-04-06T14:46:15;16.23;;;9.35;;
28625;SDS011;18905;42.668;23.364;2023-04-06T14:49:18;18.27;;;10.23;;
28625;SDS011;18905;42.668;23.364;2023-04-06T14:52:11;20.42;;;9.63;;
28625;SDS011;18905;42.668;23.364;2023-04-06T14:55:40;16.63;;;9.43;;
28625;SDS011;18905;42.668;23.364;2023-04-06T14:58:51;16.17;;;10.15;;
28625;SDS011;18905;42.668;23.364;2023-04-06T15:01:37;17.80;;;10.50;;
28625;SDS011;18905;42.668;23.364;2023-04-06T15:04:09;18.13;;;10.43;;
28625;SDS011;18905;42.668;23.364;2023-04-06T15:06:54;21.13;;;10.10;;
28625;SDS011;18905;42.668;23.364;2023-04-06T15:09:51;16.92;;;10.93;;
28625;SDS011;18905;42.668;23.364;2023-04-06T15:12:40;19.85;;;10.48;;
28625;SDS011;18905;42.668;23.364;2023-04-06T15:15:40;19.02;;;11.70;;
28625;SDS011;18905;42.668;23.364;2023-04-06T15:21:45;28.88;;;12.25;;
28625;SDS011;18905;42.668;23.364;2023-04-06T15:24:23;18.05;;;10.88;;
28625;SDS011;18905;42.668;23.364;2023-04-06T15:27:12;16.48;;;10.90;;
28625;SDS011;18905;42.668;23.364;2023-04-06T15:29:43;17.65;;;11.00;;
28625;SDS011;18905;42.668;23.364;2023-04-06T15:32:14;16.15;;;10.43;;
28625;SDS011;18905;42.668;23.364;2023-04-06T15:34:47;19.13;;;11.70;;
28625;SDS011;18905;42.668;23.364;2023-04-06T15:37:13;19.67;;;12.60;;
28625;SDS011;18905;42.668;23.364;2023-04-06T15:39:43;21.45;;;13.60;;
28625;SDS011;18905;42.668;23.364;2023-04-06T15:42:08;25.65;;;13.65;;
28625;SDS011;18905;42.668;23.364;2023-04-06T15:44:35;20.58;;;13.63;;
28625;SDS011;18905;42.668;23.364;2023-04-06T15:47:00;18.10;;;11.00;;
28625;SDS011;18905;42.668;23.364;2023-04-06T15:49:25;25.00;;;13.35;;
28625;SDS011;18905;42.668;23.364;2023-04-06T15:51:51;22.73;;;12.70;;
28625;SDS011;18905;42.668;23.364;2023-04-06T15:54:16;24.13;;;13.68;;
28625;SDS011;18905;42.668;23.364;2023-04-06T15:56:44;22.00;;;12.77;;
28625;SDS011;18905;42.668;23.364;2023-04-06T15:59:09;21.48;;;13.52;;
28625;SDS011;18905;42.668;23.364;2023-04-06T16:01:35;22.50;;;13.65;;
28625;SDS011;18905;42.668;23.364;2023-04-06T16:04:00;20.73;;;12.93;;
28625;SDS011;18905;42.668;23.364;2023-04-06T16:06:26;23.75;;;14.18;;
28625;SDS011;18905;42.668;23.364;2023-04-06T16:08:51;19.45;;;12.68;;
28625;SDS011;18905;42.668;23.364;2023-04-06T16:11:17;29.92;;;12.13;;
28625;SDS011;18905;42.668;23.364;2023-04-06T16:13:42;20.02;;;12.00;;
28625;SDS011;18905;42.668;23.364;2023-04-06T16:16:08;16.63;;;10.05;;